sensor_id;sensor_type;location;lat;lon;timestamp;temperature;humidity
82836;DHT22;72587;50.746;8.246;2023-09-18T00:00:21;16.50;99.90
82836;DHT22;72587;50.746;8.246;2023-09-18T00:02:47;16.50;99.90
82836;DHT22;72587;50.746;8.246;2023-09-18T00:05:13;16.50;99.90
82836;DHT22;72587;50.746;8.246;2023-09-18T00:07:42;16.40;99.90
82836;DHT22;72587;50.746;8.246;2023-09-18T00:10:10;16.40;99.90
82836;DHT22;72587;50.746;8.246;2023-09-18T00:12:36;16.40;99.90
82836;DHT22;72587;50.746;8.246;2023-09-18T00:15:01;16.40;99.90
82836;DHT22;72587;50.746;8.246;2023-09-18T00:17:27;16.40;99.90
82836;DHT22;72587;50.746;8.246;2023-09-18T00:19:52;16.30;99.90
82836;DHT22;72587;50.746;8.246;2023-09-18T00:22:18;16.30;99.90
82836;DHT22;72587;50.746;8.246;2023-09-18T00:24:44;16.30;99.90
82836;DHT22;72587;50.746;8.246;2023-09-18T00:27:10;16.30;99.90
82836;DHT22;72587;50.746;8.246;2023-09-18T00:29:36;16.20;99.90
82836;DHT22;72587;50.746;8.246;2023-09-18T00:32:02;16.20;99.90
82836;DHT22;72587;50.746;8.246;2023-09-18T00:34:29;16.10;99.90
82836;DHT22;72587;50.746;8.246;2023-09-18T00:36:55;16.10;99.90
82836;DHT22;72587;50.746;8.246;2023-09-18T00:39:20;16.10;99.90
82836;DHT22;72587;50.746;8.246;2023-09-18T00:41:46;16.00;99.90
82836;DHT22;72587;50.746;8.246;2023-09-18T00:44:14;16.00;99.90
82836;DHT22;72587;50.746;8.246;2023-09-18T00:46:40;15.90;99.90
82836;DHT22;72587;50.746;8.246;2023-09-18T00:49:06;15.90;99.90
82836;DHT22;72587;50.746;8.246;2023-09-18T00:51:32;15.90;99.90
82836;DHT22;72587;50.746;8.246;2023-09-18T00:53:58;15.80;99.90
82836;DHT22;72587;50.746;8.246;2023-09-18T00:56:24;15.80;99.90
82836;DHT22;72587;50.746;8.246;2023-09-18T00:58:50;15.80;99.90
82836;DHT22;72587;50.746;8.246;2023-09-18T01:01:18;15.80;99.90
82836;DHT22;72587;50.746;8.246;2023-09-18T01:03:49;15.80;99.90
82836;DHT22;72587;50.746;8.246;2023-09-18T01:06:15;15.80;99.90
82836;DHT22;72587;50.746;8.246;2023-09-18T01:08:41;15.80;99.90
82836;DHT22;72587;50.746;8.246;2023-09-18T01:16:56;15.80;99.90
82836;DHT22;72587;50.746;8.246;2023-09-18T01:19:38;15.80;99.90
82836;DHT22;72587;50.746;8.246;2023-09-18T01:22:05;15.80;99.90
82836;DHT22;72587;50.746;8.246;2023-09-18T01:24:32;15.90;99.90
82836;DHT22;72587;50.746;8.246;2023-09-18T01:26:58;15.80;99.90
82836;DHT22;72587;50.746;8.246;2023-09-18T01:29:23;15.80;99.90
82836;DHT22;72587;50.746;8.246;2023-09-18T01:31:49;15.80;99.90
82836;DHT22;72587;50.746;8.246;2023-09-18T01:34:19;15.80;99.90
82836;DHT22;72587;50.746;8.246;2023-09-18T01:36:46;15.70;99.90
82836;DHT22;72587;50.746;8.246;2023-09-18T01:39:12;15.80;99.90
82836;DHT22;72587;50.746;8.246;2023-09-18T01:41:40;15.70;99.90
82836;DHT22;72587;50.746;8.246;2023-09-18T01:44:06;15.70;99.90
82836;DHT22;72587;50.746;8.246;2023-09-18T01:46:33;15.80;99.90
82836;DHT22;72587;50.746;8.246;2023-09-18T01:49:02;15.70;99.90
82836;DHT22;72587;50.746;8.246;2023-09-18T01:51:29;15.80;99.90
82836;DHT22;72587;50.746;8.246;2023-09-18T01:53:56;15.70;99.90
82836;DHT22;72587;50.746;8.246;2023-09-18T01:56:22;15.70;99.90
82836;DHT22;72587;50.746;8.246;2023-09-18T01:58:49;15.80;99.90
82836;DHT22;72587;50.746;8.246;2023-09-18T02:01:14;15.80;99.90
82836;DHT22;72587;50.746;8.246;2023-09-18T02:03:40;15.80;99.90
82836;DHT22;72587;50.746;8.246;2023-09-18T02:06:09;15.80;99.90
82836;DHT22;72587;50.746;8.246;2023-09-18T02:08:35;15.80;99.90
82836;DHT22;72587;50.746;8.246;2023-09-18T02:11:01;15.70;99.90
82836;DHT22;72587;50.746;8.246;2023-09-18T02:13:26;15.60;99.90
82836;DHT22;72587;50.746;8.246;2023-09-18T02:15:52;15.70;99.90
82836;DHT22;72587;50.746;8.246;2023-09-18T02:18:18;15.60;99.90
82836;DHT22;72587;50.746;8.246;2023-09-18T02:20:44;15.50;99.90
82836;DHT22;72587;50.746;8.246;2023-09-18T02:23:13;15.60;99.90
82836;DHT22;72587;50.746;8.246;2023-09-18T02:25:38;15.50;99.90
82836;DHT22;72587;50.746;8.246;2023-09-18T02:28:06;15.50;99.90
82836;DHT22;72587;50.746;8.246;2023-09-18T02:30:31;15.50;99.90
82836;DHT22;72587;50.746;8.246;2023-09-18T02:32:57;15.40;99.90
82836;DHT22;72587;50.746;8.246;2023-09-18T02:35:23;15.40;99.90
82836;DHT22;72587;50.746;8.246;2023-09-18T02:37:48;15.40;99.90
82836;DHT22;72587;50.746;8.246;2023-09-18T02:40:14;15.40;99.90
82836;DHT22;72587;50.746;8.246;2023-09-18T02:42:40;15.40;99.90
82836;DHT22;72587;50.746;8.246;2023-09-18T02:45:06;15.50;99.90
82836;DHT22;72587;50.746;8.246;2023-09-18T02:47:31;15.50;99.90
82836;DHT22;72587;50.746;8.246;2023-09-18T02:49:59;15.60;99.90
82836;DHT22;72587;50.746;8.246;2023-09-18T02:52:24;15.70;99.90
82836;DHT22;72587;50.746;8.246;2023-09-18T02:54:50;15.80;99.90
82836;DHT22;72587;50.746;8.246;2023-09-18T02:57:15;15.80;99.90
82836;DHT22;72587;50.746;8.246;2023-09-18T02:59:41;15.80;99.90
82836;DHT22;72587;50.746;8.246;2023-09-18T03:02:07;15.90;99.90
82836;DHT22;72587;50.746;8.246;2023-09-18T03:04:32;15.90;99.90
82836;DHT22;72587;50.746;8.246;2023-09-18T03:06:58;15.90;99.90
82836;DHT22;72587;50.746;8.246;2023-09-18T03:09:23;16.00;99.90
82836;DHT22;72587;50.746;8.246;2023-09-18T03:11:49;16.00;99.90
82836;DHT22;72587;50.746;8.246;2023-09-18T03:14:14;16.10;99.90
82836;DHT22;72587;50.746;8.246;2023-09-18T03:16:40;16.10;99.90
82836;DHT22;72587;50.746;8.246;2023-09-18T03:19:05;16.10;99.90
82836;DHT22;72587;50.746;8.246;2023-09-18T03:21:31;16.20;99.90
82836;DHT22;72587;50.746;8.246;2023-09-18T03:23:59;16.20;99.90
82836;DHT22;72587;50.746;8.246;2023-09-18T03:26:28;16.20;99.90
82836;DHT22;72587;50.746;8.246;2023-09-18T03:28:53;16.30;99.90
82836;DHT22;72587;50.746;8.246;2023-09-18T03:31:19;16.30;99.90
82836;DHT22;72587;50.746;8.246;2023-09-18T03:33:44;16.40;99.90
82836;DHT22;72587;50.746;8.246;2023-09-18T03:36:10;16.40;99.90
82836;DHT22;72587;50.746;8.246;2023-09-18T03:38:36;16.40;99.90
82836;DHT22;72587;50.746;8.246;2023-09-18T03:41:02;16.40;99.90
82836;DHT22;72587;50.746;8.246;2023-09-18T03:43:28;16.50;99.90
82836;DHT22;72587;50.746;8.246;2023-09-18T03:45:53;16.50;99.90
82836;DHT22;72587;50.746;8.246;2023-09-18T03:48:19;16.50;99.90
82836;DHT22;72587;50.746;8.246;2023-09-18T03:50:47;16.50;99.90
82836;DHT22;72587;50.746;8.246;2023-09-18T03:53:12;16.40;99.90
82836;DHT22;72587;50.746;8.246;2023-09-18T03:55:38;16.40;99.90
82836;DHT22;72587;50.746;8.246;2023-09-18T03:58:04;16.50;99.90
82836;DHT22;72587;50.746;8.246;2023-09-18T04:00:30;16.50;99.90
82836;DHT22;72587;50.746;8.246;2023-09-18T04:02:55;16.50;99.90
82836;DHT22;72587;50.746;8.246;2023-09-18T04:05:21;16.50;99.90
82836;DHT22;72587;50.746;8.246;2023-09-18T04:07:47;16.50;99.90
82836;DHT22;72587;50.746;8.246;2023-09-18T04:10:13;16.40;99.90
82836;DHT22;72587;50.746;8.246;2023-09-18T04:12:49;16.30;99.90
82836;DHT22;72587;50.746;8.246;2023-09-18T04:15:16;16.30;99.90
82836;DHT22;72587;50.746;8.246;2023-09-18T04:17:43;16.30;99.90
82836;DHT22;72587;50.746;8.246;2023-09-18T04:20:10;16.30;99.90
82836;DHT22;72587;50.746;8.246;2023-09-18T04:22:36;16.40;99.90
82836;DHT22;72587;50.746;8.246;2023-09-18T04:25:02;16.40;99.90
82836;DHT22;72587;50.746;8.246;2023-09-18T04:27:30;16.50;99.90
82836;DHT22;72587;50.746;8.246;2023-09-18T04:29:56;16.60;99.90
82836;DHT22;72587;50.746;8.246;2023-09-18T04:32:22;16.50;99.90
82836;DHT22;72587;50.746;8.246;2023-09-18T04:34:48;16.60;99.90
82836;DHT22;72587;50.746;8.246;2023-09-18T04:37:14;16.50;99.90
82836;DHT22;72587;50.746;8.246;2023-09-18T04:39:39;16.50;99.90
82836;DHT22;72587;50.746;8.246;2023-09-18T04:42:05;16.50;99.90
82836;DHT22;72587;50.746;8.246;2023-09-18T04:44:31;16.50;99.90
82836;DHT22;72587;50.746;8.246;2023-09-18T04:46:56;16.50;99.90
82836;DHT22;72587;50.746;8.246;2023-09-18T04:49:23;16.50;99.90
82836;DHT22;72587;50.746;8.246;2023-09-18T04:51:49;16.50;99.90
82836;DHT22;72587;50.746;8.246;2023-09-18T04:54:15;16.50;99.90
82836;DHT22;72587;50.746;8.246;2023-09-18T04:56:41;16.50;99.90
82836;DHT22;72587;50.746;8.246;2023-09-18T04:59:06;16.50;99.90
82836;DHT22;72587;50.746;8.246;2023-09-18T05:01:32;16.40;99.90
82836;DHT22;72587;50.746;8.246;2023-09-18T05:03:57;16.40;99.90
82836;DHT22;72587;50.746;8.246;2023-09-18T05:06:23;16.40;99.90
82836;DHT22;72587;50.746;8.246;2023-09-18T05:08:49;16.50;99.90
82836;DHT22;72587;50.746;8.246;2023-09-18T05:11:14;16.40;99.90
82836;DHT22;72587;50.746;8.246;2023-09-18T05:13:40;16.40;99.90
82836;DHT22;72587;50.746;8.246;2023-09-18T05:16:06;16.40;99.90
82836;DHT22;72587;50.746;8.246;2023-09-18T05:18:31;16.40;99.90
82836;DHT22;72587;50.746;8.246;2023-09-18T05:20:57;16.40;99.90
82836;DHT22;72587;50.746;8.246;2023-09-18T05:23:23;16.40;99.90
82836;DHT22;72587;50.746;8.246;2023-09-18T05:25:49;16.30;99.90
82836;DHT22;72587;50.746;8.246;2023-09-18T05:28:14;16.30;99.90
82836;DHT22;72587;50.746;8.246;2023-09-18T05:30:40;16.40;99.90
82836;DHT22;72587;50.746;8.246;2023-09-18T05:33:06;16.40;99.90
82836;DHT22;72587;50.746;8.246;2023-09-18T05:35:36;16.40;99.90
82836;DHT22;72587;50.746;8.246;2023-09-18T05:38:03;16.50;99.90
82836;DHT22;72587;50.746;8.246;2023-09-18T05:40:28;16.50;99.90
82836;DHT22;72587;50.746;8.246;2023-09-18T05:42:55;16.50;99.90
82836;DHT22;72587;50.746;8.246;2023-09-18T05:45:21;16.60;99.90
82836;DHT22;72587;50.746;8.246;2023-09-18T05:47:48;16.60;99.90
82836;DHT22;72587;50.746;8.246;2023-09-18T05:50:14;16.70;99.90
82836;DHT22;72587;50.746;8.246;2023-09-18T05:52:44;16.70;99.90
82836;DHT22;72587;50.746;8.246;2023-09-18T05:55:10;16.80;99.90
82836;DHT22;72587;50.746;8.246;2023-09-18T05:57:36;16.80;99.90
82836;DHT22;72587;50.746;8.246;2023-09-18T06:00:02;16.90;99.90
82836;DHT22;72587;50.746;8.246;2023-09-18T06:02:28;16.90;99.90
82836;DHT22;72587;50.746;8.246;2023-09-18T06:04:55;16.90;99.90
82836;DHT22;72587;50.746;8.246;2023-09-18T06:07:32;17.00;99.90
82836;DHT22;72587;50.746;8.246;2023-09-18T06:09:58;17.00;99.90
82836;DHT22;72587;50.746;8.246;2023-09-18T06:12:24;17.10;99.90
82836;DHT22;72587;50.746;8.246;2023-09-18T06:14:50;17.10;99.90
82836;DHT22;72587;50.746;8.246;2023-09-18T06:17:16;17.20;99.90
82836;DHT22;72587;50.746;8.246;2023-09-18T06:19:43;17.30;99.90
82836;DHT22;72587;50.746;8.246;2023-09-18T06:22:08;17.40;99.90
82836;DHT22;72587;50.746;8.246;2023-09-18T06:24:34;17.40;99.90
82836;DHT22;72587;50.746;8.246;2023-09-18T06:27:00;17.40;99.90
82836;DHT22;72587;50.746;8.246;2023-09-18T06:29:26;17.50;99.90
82836;DHT22;72587;50.746;8.246;2023-09-18T06:31:51;17.50;99.90
82836;DHT22;72587;50.746;8.246;2023-09-18T06:34:17;17.60;99.90
82836;DHT22;72587;50.746;8.246;2023-09-18T06:36:42;17.80;99.90
82836;DHT22;72587;50.746;8.246;2023-09-18T06:39:08;17.80;99.90
82836;DHT22;72587;50.746;8.246;2023-09-18T06:41:34;17.90;99.90
82836;DHT22;72587;50.746;8.246;2023-09-18T06:44:01;17.90;99.90
82836;DHT22;72587;50.746;8.246;2023-09-18T06:46:29;18.00;99.90
82836;DHT22;72587;50.746;8.246;2023-09-18T06:48:55;18.00;99.90
82836;DHT22;72587;50.746;8.246;2023-09-18T06:51:22;18.00;99.90
82836;DHT22;72587;50.746;8.246;2023-09-18T06:53:48;18.00;99.90
82836;DHT22;72587;50.746;8.246;2023-09-18T06:56:13;17.80;99.90
82836;DHT22;72587;50.746;8.246;2023-09-18T06:58:39;17.80;99.90
82836;DHT22;72587;50.746;8.246;2023-09-18T07:01:04;17.90;99.90
82836;DHT22;72587;50.746;8.246;2023-09-18T07:03:35;17.90;99.90
82836;DHT22;72587;50.746;8.246;2023-09-18T07:06:02;17.90;99.90
82836;DHT22;72587;50.746;8.246;2023-09-18T07:08:27;18.00;99.90
82836;DHT22;72587;50.746;8.246;2023-09-18T07:10:53;18.00;99.90
82836;DHT22;72587;50.746;8.246;2023-09-18T07:13:19;18.10;99.90
82836;DHT22;72587;50.746;8.246;2023-09-18T07:15:44;18.10;99.90
82836;DHT22;72587;50.746;8.246;2023-09-18T07:18:10;18.20;99.90
82836;DHT22;72587;50.746;8.246;2023-09-18T07:20:40;18.20;99.90
82836;DHT22;72587;50.746;8.246;2023-09-18T07:23:05;18.40;99.90
82836;DHT22;72587;50.746;8.246;2023-09-18T07:25:31;18.50;99.90
82836;DHT22;72587;50.746;8.246;2023-09-18T07:27:57;18.60;99.90
82836;DHT22;72587;50.746;8.246;2023-09-18T07:30:22;18.80;99.90
82836;DHT22;72587;50.746;8.246;2023-09-18T07:32:55;18.90;99.90
82836;DHT22;72587;50.746;8.246;2023-09-18T07:35:24;19.00;99.90
82836;DHT22;72587;50.746;8.246;2023-09-18T07:37:50;19.00;99.90
82836;DHT22;72587;50.746;8.246;2023-09-18T07:40:16;19.00;99.90
82836;DHT22;72587;50.746;8.246;2023-09-18T07:42:41;19.10;99.90
82836;DHT22;72587;50.746;8.246;2023-09-18T07:45:09;19.10;99.90
82836;DHT22;72587;50.746;8.246;2023-09-18T07:47:35;19.20;99.90
82836;DHT22;72587;50.746;8.246;2023-09-18T07:50:01;19.20;99.90
82836;DHT22;72587;50.746;8.246;2023-09-18T07:52:26;19.20;99.90
82836;DHT22;72587;50.746;8.246;2023-09-18T07:54:52;19.20;99.90
82836;DHT22;72587;50.746;8.246;2023-09-18T07:57:18;19.10;99.90
82836;DHT22;72587;50.746;8.246;2023-09-18T07:59:44;19.10;99.90
82836;DHT22;72587;50.746;8.246;2023-09-18T08:02:11;19.20;99.90
82836;DHT22;72587;50.746;8.246;2023-09-18T08:04:37;19.10;99.90
82836;DHT22;72587;50.746;8.246;2023-09-18T08:07:03;19.00;99.90
82836;DHT22;72587;50.746;8.246;2023-09-18T08:09:31;19.10;99.90
82836;DHT22;72587;50.746;8.246;2023-09-18T08:11:57;19.00;99.90
82836;DHT22;72587;50.746;8.246;2023-09-18T08:14:22;19.00;99.90
82836;DHT22;72587;50.746;8.246;2023-09-18T08:16:48;19.10;99.90
82836;DHT22;72587;50.746;8.246;2023-09-18T08:19:16;19.10;99.90
82836;DHT22;72587;50.746;8.246;2023-09-18T08:21:42;19.10;99.90
82836;DHT22;72587;50.746;8.246;2023-09-18T08:24:08;19.20;99.90
82836;DHT22;72587;50.746;8.246;2023-09-18T08:26:33;19.30;99.90
82836;DHT22;72587;50.746;8.246;2023-09-18T08:28:59;19.30;99.90
82836;DHT22;72587;50.746;8.246;2023-09-18T08:31:25;19.40;99.90
82836;DHT22;72587;50.746;8.246;2023-09-18T08:33:56;19.50;99.90
82836;DHT22;72587;50.746;8.246;2023-09-18T08:36:22;19.50;99.90
82836;DHT22;72587;50.746;8.246;2023-09-18T08:38:50;19.60;99.90
82836;DHT22;72587;50.746;8.246;2023-09-18T08:41:18;19.70;99.90
82836;DHT22;72587;50.746;8.246;2023-09-18T08:43:45;19.80;99.90
82836;DHT22;72587;50.746;8.246;2023-09-18T08:46:13;19.90;99.90
82836;DHT22;72587;50.746;8.246;2023-09-18T08:48:39;19.70;99.90
82836;DHT22;72587;50.746;8.246;2023-09-18T08:51:06;19.80;99.90
82836;DHT22;72587;50.746;8.246;2023-09-18T08:53:33;19.90;99.90
82836;DHT22;72587;50.746;8.246;2023-09-18T08:56:00;20.00;99.90
82836;DHT22;72587;50.746;8.246;2023-09-18T08:58:33;20.10;99.90
82836;DHT22;72587;50.746;8.246;2023-09-18T09:01:02;20.30;99.90
82836;DHT22;72587;50.746;8.246;2023-09-18T09:03:29;20.50;99.90
82836;DHT22;72587;50.746;8.246;2023-09-18T09:05:56;20.70;99.90
82836;DHT22;72587;50.746;8.246;2023-09-18T09:08:21;20.80;99.90
82836;DHT22;72587;50.746;8.246;2023-09-18T09:10:48;20.90;99.90
82836;DHT22;72587;50.746;8.246;2023-09-18T09:13:14;21.00;99.90
82836;DHT22;72587;50.746;8.246;2023-09-18T09:15:47;21.10;99.90
82836;DHT22;72587;50.746;8.246;2023-09-18T09:18:13;21.30;99.90
82836;DHT22;72587;50.746;8.246;2023-09-18T09:20:56;21.60;99.90
82836;DHT22;72587;50.746;8.246;2023-09-18T09:23:29;21.70;99.90
82836;DHT22;72587;50.746;8.246;2023-09-18T09:26:16;21.60;99.90
82836;DHT22;72587;50.746;8.246;2023-09-18T09:28:43;21.20;99.90
82836;DHT22;72587;50.746;8.246;2023-09-18T09:31:10;21.20;99.90
82836;DHT22;72587;50.746;8.246;2023-09-18T09:33:37;21.20;99.90
82836;DHT22;72587;50.746;8.246;2023-09-18T09:36:06;21.30;99.90
82836;DHT22;72587;50.746;8.246;2023-09-18T09:38:34;21.30;99.90
82836;DHT22;72587;50.746;8.246;2023-09-18T09:41:00;21.40;99.90
82836;DHT22;72587;50.746;8.246;2023-09-18T09:43:27;21.70;99.90
82836;DHT22;72587;50.746;8.246;2023-09-18T09:46:02;21.80;99.90
82836;DHT22;72587;50.746;8.246;2023-09-18T09:48:29;22.00;99.90
82836;DHT22;72587;50.746;8.246;2023-09-18T09:51:00;22.10;99.90
82836;DHT22;72587;50.746;8.246;2023-09-18T09:53:45;22.00;99.90
82836;DHT22;72587;50.746;8.246;2023-09-18T09:56:12;22.10;99.90
82836;DHT22;72587;50.746;8.246;2023-09-18T09:58:38;22.30;99.90
82836;DHT22;72587;50.746;8.246;2023-09-18T10:01:08;22.40;99.90
82836;DHT22;72587;50.746;8.246;2023-09-18T10:03:38;22.40;99.90
82836;DHT22;72587;50.746;8.246;2023-09-18T10:06:04;22.20;99.90
82836;DHT22;72587;50.746;8.246;2023-09-18T10:08:31;22.10;99.90
82836;DHT22;72587;50.746;8.246;2023-09-18T10:11:08;22.10;99.90
82836;DHT22;72587;50.746;8.246;2023-09-18T10:13:59;21.90;99.90
82836;DHT22;72587;50.746;8.246;2023-09-18T10:16:26;22.00;99.90
82836;DHT22;72587;50.746;8.246;2023-09-18T10:19:27;21.90;99.90
82836;DHT22;72587;50.746;8.246;2023-09-18T10:22:20;21.90;99.90
82836;DHT22;72587;50.746;8.246;2023-09-18T10:24:50;21.90;99.90
82836;DHT22;72587;50.746;8.246;2023-09-18T10:27:20;21.80;99.90
82836;DHT22;72587;50.746;8.246;2023-09-18T10:29:49;21.80;99.90
82836;DHT22;72587;50.746;8.246;2023-09-18T10:32:17;21.90;99.90
82836;DHT22;72587;50.746;8.246;2023-09-18T10:34:45;21.90;99.90
82836;DHT22;72587;50.746;8.246;2023-09-18T10:37:12;21.90;99.90
82836;DHT22;72587;50.746;8.246;2023-09-18T10:39:41;21.90;99.90
82836;DHT22;72587;50.746;8.246;2023-09-18T10:42:09;22.00;99.90
82836;DHT22;72587;50.746;8.246;2023-09-18T10:44:36;22.00;99.90
82836;DHT22;72587;50.746;8.246;2023-09-18T10:47:03;21.90;99.90
82836;DHT22;72587;50.746;8.246;2023-09-18T10:49:31;21.70;99.90
82836;DHT22;72587;50.746;8.246;2023-09-18T10:51:57;21.60;99.90
82836;DHT22;72587;50.746;8.246;2023-09-18T10:54:26;21.60;99.90
82836;DHT22;72587;50.746;8.246;2023-09-18T10:56:52;21.70;99.90
82836;DHT22;72587;50.746;8.246;2023-09-18T10:59:19;21.80;99.90
82836;DHT22;72587;50.746;8.246;2023-09-18T11:01:46;21.90;99.90
82836;DHT22;72587;50.746;8.246;2023-09-18T11:04:13;21.80;99.90
82836;DHT22;72587;50.746;8.246;2023-09-18T11:09:24;21.90;99.90
82836;DHT22;72587;50.746;8.246;2023-09-18T11:14:42;22.20;99.90
82836;DHT22;72587;50.746;8.246;2023-09-18T11:17:38;22.30;99.90
82836;DHT22;72587;50.746;8.246;2023-09-18T11:20:05;22.60;99.90
82836;DHT22;72587;50.746;8.246;2023-09-18T11:22:47;22.70;99.90
82836;DHT22;72587;50.746;8.246;2023-09-18T11:25:49;22.60;99.90
82836;DHT22;72587;50.746;8.246;2023-09-18T11:28:23;22.60;99.90
82836;DHT22;72587;50.746;8.246;2023-09-18T11:30:50;22.50;99.90
82836;DHT22;72587;50.746;8.246;2023-09-18T11:33:37;22.70;99.90
82836;DHT22;72587;50.746;8.246;2023-09-18T11:36:04;22.80;99.90
82836;DHT22;72587;50.746;8.246;2023-09-18T11:38:31;22.50;99.90
82836;DHT22;72587;50.746;8.246;2023-09-18T11:41:00;22.40;99.90
82836;DHT22;72587;50.746;8.246;2023-09-18T11:43:28;22.60;99.90
82836;DHT22;72587;50.746;8.246;2023-09-18T11:45:59;22.60;99.90
82836;DHT22;72587;50.746;8.246;2023-09-18T11:48:27;22.40;99.90
82836;DHT22;72587;50.746;8.246;2023-09-18T11:50:58;22.40;99.90
82836;DHT22;72587;50.746;8.246;2023-09-18T11:53:27;22.40;99.90
82836;DHT22;72587;50.746;8.246;2023-09-18T11:55:53;22.40;99.90
82836;DHT22;72587;50.746;8.246;2023-09-18T11:58:18;22.50;99.90
82836;DHT22;72587;50.746;8.246;2023-09-18T12:00:49;22.70;99.90
82836;DHT22;72587;50.746;8.246;2023-09-18T12:03:19;22.90;99.90
82836;DHT22;72587;50.746;8.246;2023-09-18T12:05:59;22.90;99.90
82836;DHT22;72587;50.746;8.246;2023-09-18T12:08:26;22.90;99.90
82836;DHT22;72587;50.746;8.246;2023-09-18T12:10:55;22.90;99.90
82836;DHT22;72587;50.746;8.246;2023-09-18T12:13:21;22.90;99.90
82836;DHT22;72587;50.746;8.246;2023-09-18T12:15:48;23.10;99.90
82836;DHT22;72587;50.746;8.246;2023-09-18T12:18:15;23.20;99.90
82836;DHT22;72587;50.746;8.246;2023-09-18T12:20:50;23.40;99.90
82836;DHT22;72587;50.746;8.246;2023-09-18T12:23:16;23.80;99.90
82836;DHT22;72587;50.746;8.246;2023-09-18T12:25:49;24.00;99.90
82836;DHT22;72587;50.746;8.246;2023-09-18T12:28:15;24.10;99.90
82836;DHT22;72587;50.746;8.246;2023-09-18T12:30:43;24.20;99.90
82836;DHT22;72587;50.746;8.246;2023-09-18T12:33:09;24.00;99.90
82836;DHT22;72587;50.746;8.246;2023-09-18T12:35:36;24.10;99.90
82836;DHT22;72587;50.746;8.246;2023-09-18T12:38:14;24.10;99.90
82836;DHT22;72587;50.746;8.246;2023-09-18T12:40:40;24.00;99.90
82836;DHT22;72587;50.746;8.246;2023-09-18T12:43:06;24.00;99.90
82836;DHT22;72587;50.746;8.246;2023-09-18T12:45:32;24.00;99.90
82836;DHT22;72587;50.746;8.246;2023-09-18T12:47:59;24.10;99.90
82836;DHT22;72587;50.746;8.246;2023-09-18T12:50:25;24.00;99.90
82836;DHT22;72587;50.746;8.246;2023-09-18T12:52:51;23.80;99.90
82836;DHT22;72587;50.746;8.246;2023-09-18T12:55:26;23.80;99.90
82836;DHT22;72587;50.746;8.246;2023-09-18T12:57:53;23.80;99.90
82836;DHT22;72587;50.746;8.246;2023-09-18T13:00:20;24.00;99.90
82836;DHT22;72587;50.746;8.246;2023-09-18T13:02:48;24.00;99.90
82836;DHT22;72587;50.746;8.246;2023-09-18T13:05:20;24.00;99.90
82836;DHT22;72587;50.746;8.246;2023-09-18T13:07:50;24.00;99.90
82836;DHT22;72587;50.746;8.246;2023-09-18T13:10:16;24.10;99.90
82836;DHT22;72587;50.746;8.246;2023-09-18T13:12:49;24.20;99.90
82836;DHT22;72587;50.746;8.246;2023-09-18T13:15:30;24.30;99.90
82836;DHT22;72587;50.746;8.246;2023-09-18T13:17:57;24.60;99.90
82836;DHT22;72587;50.746;8.246;2023-09-18T13:20:26;24.90;99.90
82836;DHT22;72587;50.746;8.246;2023-09-18T13:22:56;25.10;99.90
82836;DHT22;72587;50.746;8.246;2023-09-18T13:25:38;24.80;99.90
82836;DHT22;72587;50.746;8.246;2023-09-18T13:28:08;24.30;99.90
82836;DHT22;72587;50.746;8.246;2023-09-18T13:30:36;23.90;99.90
82836;DHT22;72587;50.746;8.246;2023-09-18T13:33:14;23.70;99.90
82836;DHT22;72587;50.746;8.246;2023-09-18T13:35:42;23.60;99.90
82836;DHT22;72587;50.746;8.246;2023-09-18T13:38:09;23.40;99.90
82836;DHT22;72587;50.746;8.246;2023-09-18T13:40:36;23.40;99.90
82836;DHT22;72587;50.746;8.246;2023-09-18T13:43:03;23.40;99.90
82836;DHT22;72587;50.746;8.246;2023-09-18T13:45:30;23.50;99.90
82836;DHT22;72587;50.746;8.246;2023-09-18T13:47:55;23.70;99.90
82836;DHT22;72587;50.746;8.246;2023-09-18T13:50:21;23.80;99.90
82836;DHT22;72587;50.746;8.246;2023-09-18T13:52:47;23.90;99.90
82836;DHT22;72587;50.746;8.246;2023-09-18T13:55:12;24.20;99.90
82836;DHT22;72587;50.746;8.246;2023-09-18T13:57:38;24.50;99.90
82836;DHT22;72587;50.746;8.246;2023-09-18T14:00:06;24.50;99.90
82836;DHT22;72587;50.746;8.246;2023-09-18T14:02:38;24.70;99.90
82836;DHT22;72587;50.746;8.246;2023-09-18T14:05:04;24.90;99.90
82836;DHT22;72587;50.746;8.246;2023-09-18T14:07:31;25.10;99.90
82836;DHT22;72587;50.746;8.246;2023-09-18T14:09:56;25.60;99.90
82836;DHT22;72587;50.746;8.246;2023-09-18T14:12:22;25.90;99.90
82836;DHT22;72587;50.746;8.246;2023-09-18T14:14:48;26.20;99.90
82836;DHT22;72587;50.746;8.246;2023-09-18T14:17:13;26.40;99.90
82836;DHT22;72587;50.746;8.246;2023-09-18T14:19:42;26.30;99.90
82836;DHT22;72587;50.746;8.246;2023-09-18T14:22:08;26.10;99.90
82836;DHT22;72587;50.746;8.246;2023-09-18T14:24:34;26.00;99.90
82836;DHT22;72587;50.746;8.246;2023-09-18T14:27:03;26.00;99.90
82836;DHT22;72587;50.746;8.246;2023-09-18T14:29:29;26.00;99.90
82836;DHT22;72587;50.746;8.246;2023-09-18T14:31:56;25.90;99.90
82836;DHT22;72587;50.746;8.246;2023-09-18T14:34:22;26.00;99.90
82836;DHT22;72587;50.746;8.246;2023-09-18T14:36:47;26.10;99.90
82836;DHT22;72587;50.746;8.246;2023-09-18T14:39:13;26.20;99.90
82836;DHT22;72587;50.746;8.246;2023-09-18T14:41:40;26.00;99.90
82836;DHT22;72587;50.746;8.246;2023-09-18T14:44:07;26.00;99.90
82836;DHT22;72587;50.746;8.246;2023-09-18T14:46:37;26.10;99.90
82836;DHT22;72587;50.746;8.246;2023-09-18T14:49:04;25.70;99.90
82836;DHT22;72587;50.746;8.246;2023-09-18T14:51:30;25.50;99.90
82836;DHT22;72587;50.746;8.246;2023-09-18T14:53:57;25.10;99.90
82836;DHT22;72587;50.746;8.246;2023-09-18T14:56:23;24.70;99.90
82836;DHT22;72587;50.746;8.246;2023-09-18T14:58:48;24.50;99.90
82836;DHT22;72587;50.746;8.246;2023-09-18T15:01:15;24.30;99.90
82836;DHT22;72587;50.746;8.246;2023-09-18T15:03:41;24.30;99.90
82836;DHT22;72587;50.746;8.246;2023-09-18T15:06:07;24.40;99.90
82836;DHT22;72587;50.746;8.246;2023-09-18T15:08:33;24.70;99.90
82836;DHT22;72587;50.746;8.246;2023-09-18T15:10:59;24.90;99.90
82836;DHT22;72587;50.746;8.246;2023-09-18T15:13:25;24.70;99.90
82836;DHT22;72587;50.746;8.246;2023-09-18T15:15:50;24.60;99.90
82836;DHT22;72587;50.746;8.246;2023-09-18T15:18:16;24.70;99.90
82836;DHT22;72587;50.746;8.246;2023-09-18T15:20:42;24.70;99.90
82836;DHT22;72587;50.746;8.246;2023-09-18T15:23:11;24.60;99.90
82836;DHT22;72587;50.746;8.246;2023-09-18T15:25:36;24.70;99.90
82836;DHT22;72587;50.746;8.246;2023-09-18T15:28:06;24.60;99.90
82836;DHT22;72587;50.746;8.246;2023-09-18T15:30:33;24.90;99.90
82836;DHT22;72587;50.746;8.246;2023-09-18T15:32:58;25.00;99.90
82836;DHT22;72587;50.746;8.246;2023-09-18T15:35:25;25.10;99.90
82836;DHT22;72587;50.746;8.246;2023-09-18T15:37:52;25.10;99.90
82836;DHT22;72587;50.746;8.246;2023-09-18T15:40:19;25.00;99.90
82836;DHT22;72587;50.746;8.246;2023-09-18T15:42:46;25.10;99.90